sensor_id;sensor_type;location;lat;lon;timestamp;P1;durP1;ratioP1;P2;durP2;ratioP2
14782;SDS011;7483;50.498;12.138;2023-06-04T00:02:25;0.10;;;0.10;;
14782;SDS011;7483;50.498;12.138;2023-06-04T00:04:53;0.10;;;0.10;;
14782;SDS011;7483;50.498;12.138;2023-06-04T00:07:22;0.10;;;0.10;;
14782;SDS011;7483;50.498;12.138;2023-06-04T00:09:50;0.10;;;0.10;;
14782;SDS011;7483;50.498;12.138;2023-06-04T00:12:19;0.15;;;0.15;;
14782;SDS011;7483;50.498;12.138;2023-06-04T00:14:47;0.20;;;0.20;;
14782;SDS011;7483;50.498;12.138;2023-06-04T00:17:14;0.15;;;0.15;;
14782;SDS011;7483;50.498;12.138;2023-06-04T00:19:42;0.10;;;0.10;;
14782;SDS011;7483;50.498;12.138;2023-06-04T00:22:09;0.20;;;0.20;;
14782;SDS011;7483;50.498;12.138;2023-06-04T00:24:38;0.20;;;0.20;;
14782;SDS011;7483;50.498;12.138;2023-06-04T00:27:08;0.30;;;0.30;;
14782;SDS011;7483;50.498;12.138;2023-06-04T00:29:36;0.10;;;0.10;;
14782;SDS011;7483;50.498;12.138;2023-06-04T00:32:04;0.10;;;0.10;;
14782;SDS011;7483;50.498;12.138;2023-06-04T00:34:32;0.20;;;0.20;;
14782;SDS011;7483;50.498;12.138;2023-06-04T00:37:00;0.20;;;0.20;;
14782;SDS011;7483;50.498;12.138;2023-06-04T00:39:28;0.10;;;0.10;;
14782;SDS011;7483;50.498;12.138;2023-06-04T00:42:03;0.30;;;0.30;;
14782;SDS011;7483;50.498;12.138;2023-06-04T00:44:31;0.10;;;0.10;;
14782;SDS011;7483;50.498;12.138;2023-06-04T00:46:59;0.28;;;0.28;;
14782;SDS011;7483;50.498;12.138;2023-06-04T00:49:27;0.20;;;0.20;;
14782;SDS011;7483;50.498;12.138;2023-06-04T00:51:55;0.13;;;0.13;;
14782;SDS011;7483;50.498;12.138;2023-06-04T00:54:22;0.20;;;0.20;;
14782;SDS011;7483;50.498;12.138;2023-06-04T00:56:51;0.10;;;0.10;;
14782;SDS011;7483;50.498;12.138;2023-06-04T00:59:19;0.20;;;0.20;;
14782;SDS011;7483;50.498;12.138;2023-06-04T01:01:48;0.15;;;0.15;;
14782;SDS011;7483;50.498;12.138;2023-06-04T01:04:18;0.20;;;0.20;;
14782;SDS011;7483;50.498;12.138;2023-06-04T01:06:49;0.10;;;0.10;;
14782;SDS011;7483;50.498;12.138;2023-06-04T01:09:18;0.17;;;0.17;;
14782;SDS011;7483;50.498;12.138;2023-06-04T01:11:45;0.20;;;0.20;;
14782;SDS011;7483;50.498;12.138;2023-06-04T01:14:13;0.17;;;0.17;;
14782;SDS011;7483;50.498;12.138;2023-06-04T01:16:45;0.22;;;0.22;;
14782;SDS011;7483;50.498;12.138;2023-06-04T01:19:21;0.30;;;0.30;;
14782;SDS011;7483;50.498;12.138;2023-06-04T01:22:00;0.30;;;0.30;;
14782;SDS011;7483;50.498;12.138;2023-06-04T01:24:30;0.17;;;0.17;;
14782;SDS011;7483;50.498;12.138;2023-06-04T01:27:03;0.13;;;0.13;;
14782;SDS011;7483;50.498;12.138;2023-06-04T01:29:32;0.15;;;0.15;;
14782;SDS011;7483;50.498;12.138;2023-06-04T01:32:04;0.20;;;0.20;;
14782;SDS011;7483;50.498;12.138;2023-06-04T01:34:42;0.13;;;0.13;;
14782;SDS011;7483;50.498;12.138;2023-06-04T01:39:38;0.20;;;0.20;;
14782;SDS011;7483;50.498;12.138;2023-06-04T01:42:07;0.13;;;0.13;;
14782;SDS011;7483;50.498;12.138;2023-06-04T01:44:35;0.30;;;0.30;;
14782;SDS011;7483;50.498;12.138;2023-06-04T01:47:05;0.20;;;0.20;;
14782;SDS011;7483;50.498;12.138;2023-06-04T01:49:34;0.10;;;0.10;;
14782;SDS011;7483;50.498;12.138;2023-06-04T01:52:04;0.10;;;0.10;;
14782;SDS011;7483;50.498;12.138;2023-06-04T01:54:32;0.20;;;0.20;;
14782;SDS011;7483;50.498;12.138;2023-06-04T01:57:00;0.20;;;0.15;;
14782;SDS011;7483;50.498;12.138;2023-06-04T01:59:29;0.10;;;0.10;;
14782;SDS011;7483;50.498;12.138;2023-06-04T02:01:58;0.20;;;0.20;;
14782;SDS011;7483;50.498;12.138;2023-06-04T02:04:29;0.13;;;0.13;;
14782;SDS011;7483;50.498;12.138;2023-06-04T02:06:57;0.20;;;0.20;;
14782;SDS011;7483;50.498;12.138;2023-06-04T02:09:25;0.20;;;0.20;;
14782;SDS011;7483;50.498;12.138;2023-06-04T02:11:53;0.20;;;0.20;;
14782;SDS011;7483;50.498;12.138;2023-06-04T02:14:21;0.20;;;0.20;;
14782;SDS011;7483;50.498;12.138;2023-06-04T02:16:48;0.10;;;0.10;;
14782;SDS011;7483;50.498;12.138;2023-06-04T02:19:16;0.20;;;0.20;;
14782;SDS011;7483;50.498;12.138;2023-06-04T02:21:46;0.20;;;0.20;;
14782;SDS011;7483;50.498;12.138;2023-06-04T02:24:14;0.20;;;0.20;;
14782;SDS011;7483;50.498;12.138;2023-06-04T02:26:41;0.13;;;0.13;;
14782;SDS011;7483;50.498;12.138;2023-06-04T02:29:09;0.15;;;0.15;;
14782;SDS011;7483;50.498;12.138;2023-06-04T02:31:37;0.22;;;0.22;;
14782;SDS011;7483;50.498;12.138;2023-06-04T02:34:04;0.20;;;0.20;;
14782;SDS011;7483;50.498;12.138;2023-06-04T02:36:32;0.20;;;0.20;;
14782;SDS011;7483;50.498;12.138;2023-06-04T02:39:01;0.20;;;0.20;;
14782;SDS011;7483;50.498;12.138;2023-06-04T02:41:29;0.15;;;0.15;;
14782;SDS011;7483;50.498;12.138;2023-06-04T02:43:56;0.10;;;0.10;;
14782;SDS011;7483;50.498;12.138;2023-06-04T02:46:24;0.10;;;0.10;;
14782;SDS011;7483;50.498;12.138;2023-06-04T02:48:52;0.20;;;0.20;;
14782;SDS011;7483;50.498;12.138;2023-06-04T02:51:20;0.20;;;0.20;;
14782;SDS011;7483;50.498;12.138;2023-06-04T02:53:47;0.20;;;0.20;;
14782;SDS011;7483;50.498;12.138;2023-06-04T02:56:16;0.20;;;0.20;;
14782;SDS011;7483;50.498;12.138;2023-06-04T02:58:50;0.10;;;0.10;;
14782;SDS011;7483;50.498;12.138;2023-06-04T03:01:19;0.10;;;0.10;;
14782;SDS011;7483;50.498;12.138;2023-06-04T03:03:47;0.10;;;0.10;;
14782;SDS011;7483;50.498;12.138;2023-06-04T03:06:15;0.10;;;0.10;;
14782;SDS011;7483;50.498;12.138;2023-06-04T03:08:44;0.20;;;0.20;;
14782;SDS011;7483;50.498;12.138;2023-06-04T03:11:12;0.10;;;0.10;;
14782;SDS011;7483;50.498;12.138;2023-06-04T03:13:41;0.13;;;0.13;;
14782;SDS011;7483;50.498;12.138;2023-06-04T03:16:09;0.20;;;0.20;;
14782;SDS011;7483;50.498;12.138;2023-06-04T03:18:37;0.20;;;0.20;;
14782;SDS011;7483;50.498;12.138;2023-06-04T03:21:04;0.20;;;0.20;;
14782;SDS011;7483;50.498;12.138;2023-06-04T03:23:33;0.10;;;0.10;;
14782;SDS011;7483;50.498;12.138;2023-06-04T03:26:01;0.20;;;0.20;;
14782;SDS011;7483;50.498;12.138;2023-06-04T03:28:29;0.17;;;0.17;;
14782;SDS011;7483;50.498;12.138;2023-06-04T03:31:00;0.17;;;0.17;;
14782;SDS011;7483;50.498;12.138;2023-06-04T03:33:28;0.20;;;0.20;;
14782;SDS011;7483;50.498;12.138;2023-06-04T03:35:56;0.20;;;0.20;;
14782;SDS011;7483;50.498;12.138;2023-06-04T03:38:25;0.10;;;0.10;;
14782;SDS011;7483;50.498;12.138;2023-06-04T03:40:53;0.20;;;0.20;;
14782;SDS011;7483;50.498;12.138;2023-06-04T03:43:21;0.03;;;0.03;;
14782;SDS011;7483;50.498;12.138;2023-06-04T03:45:52;0.13;;;0.13;;
14782;SDS011;7483;50.498;12.138;2023-06-04T03:48:22;0.20;;;0.20;;
14782;SDS011;7483;50.498;12.138;2023-06-04T03:50:50;0.10;;;0.10;;
14782;SDS011;7483;50.498;12.138;2023-06-04T03:53:18;0.20;;;0.20;;
14782;SDS011;7483;50.498;12.138;2023-06-04T03:55:46;0.20;;;0.20;;
14782;SDS011;7483;50.498;12.138;2023-06-04T03:58:14;0.20;;;0.20;;
14782;SDS011;7483;50.498;12.138;2023-06-04T04:00:46;0.15;;;0.15;;
14782;SDS011;7483;50.498;12.138;2023-06-04T04:03:15;0.30;;;0.30;;
14782;SDS011;7483;50.498;12.138;2023-06-04T04:05:46;0.10;;;0.10;;
14782;SDS011;7483;50.498;12.138;2023-06-04T04:08:13;0.10;;;0.10;;
14782;SDS011;7483;50.498;12.138;2023-06-04T04:10:43;0.10;;;0.10;;
14782;SDS011;7483;50.498;12.138;2023-06-04T04:13:11;0.20;;;0.20;;
14782;SDS011;7483;50.498;12.138;2023-06-04T04:15:40;0.15;;;0.15;;
14782;SDS011;7483;50.498;12.138;2023-06-04T04:18:08;0.20;;;0.20;;
14782;SDS011;7483;50.498;12.138;2023-06-04T04:20:37;0.30;;;0.30;;
14782;SDS011;7483;50.498;12.138;2023-06-04T04:23:10;0.20;;;0.20;;
14782;SDS011;7483;50.498;12.138;2023-06-04T04:25:40;0.20;;;0.20;;
14782;SDS011;7483;50.498;12.138;2023-06-04T04:28:10;0.20;;;0.20;;
14782;SDS011;7483;50.498;12.138;2023-06-04T04:30:39;0.10;;;0.10;;
14782;SDS011;7483;50.498;12.138;2023-06-04T04:33:08;0.10;;;0.10;;
14782;SDS011;7483;50.498;12.138;2023-06-04T04:35:42;0.10;;;0.10;;
14782;SDS011;7483;50.498;12.138;2023-06-04T04:38:14;0.10;;;0.10;;
14782;SDS011;7483;50.498;12.138;2023-06-04T04:40:49;0.20;;;0.20;;
14782;SDS011;7483;50.498;12.138;2023-06-04T04:43:19;0.20;;;0.20;;
14782;SDS011;7483;50.498;12.138;2023-06-04T04:45:55;0.10;;;0.10;;
14782;SDS011;7483;50.498;12.138;2023-06-04T04:48:23;0.15;;;0.15;;
14782;SDS011;7483;50.498;12.138;2023-06-04T04:50:51;0.20;;;0.20;;
14782;SDS011;7483;50.498;12.138;2023-06-04T04:53:20;0.20;;;0.20;;
14782;SDS011;7483;50.498;12.138;2023-06-04T04:55:48;0.15;;;0.15;;
14782;SDS011;7483;50.498;12.138;2023-06-04T04:58:16;0.20;;;0.20;;
14782;SDS011;7483;50.498;12.138;2023-06-04T05:00:44;0.20;;;0.20;;
14782;SDS011;7483;50.498;12.138;2023-06-04T05:03:14;0.10;;;0.10;;
14782;SDS011;7483;50.498;12.138;2023-06-04T05:05:42;0.10;;;0.10;;
14782;SDS011;7483;50.498;12.138;2023-06-04T05:08:12;0.20;;;0.20;;
14782;SDS011;7483;50.498;12.138;2023-06-04T05:10:43;0.22;;;0.22;;
14782;SDS011;7483;50.498;12.138;2023-06-04T05:13:10;0.28;;;0.28;;
14782;SDS011;7483;50.498;12.138;2023-06-04T05:15:45;0.20;;;0.20;;
14782;SDS011;7483;50.498;12.138;2023-06-04T05:18:17;0.13;;;0.13;;
14782;SDS011;7483;50.498;12.138;2023-06-04T05:20:47;0.30;;;0.30;;
14782;SDS011;7483;50.498;12.138;2023-06-04T05:23:15;0.08;;;0.08;;
14782;SDS011;7483;50.498;12.138;2023-06-04T05:25:48;0.30;;;0.30;;
14782;SDS011;7483;50.498;12.138;2023-06-04T05:28:17;0.20;;;0.20;;
14782;SDS011;7483;50.498;12.138;2023-06-04T05:30:47;0.13;;;0.13;;
14782;SDS011;7483;50.498;12.138;2023-06-04T05:33:16;0.20;;;0.20;;
14782;SDS011;7483;50.498;12.138;2023-06-04T05:35:51;0.28;;;0.28;;
14782;SDS011;7483;50.498;12.138;2023-06-04T05:38:21;0.20;;;0.20;;
14782;SDS011;7483;50.498;12.138;2023-06-04T05:40:54;0.20;;;0.20;;
14782;SDS011;7483;50.498;12.138;2023-06-04T05:43:24;0.20;;;0.20;;
14782;SDS011;7483;50.498;12.138;2023-06-04T05:45:52;0.10;;;0.10;;
14782;SDS011;7483;50.498;12.138;2023-06-04T05:48:20;0.10;;;0.10;;
14782;SDS011;7483;50.498;12.138;2023-06-04T05:50:48;0.10;;;0.10;;
14782;SDS011;7483;50.498;12.138;2023-06-04T05:53:16;0.13;;;0.13;;
14782;SDS011;7483;50.498;12.138;2023-06-04T05:55:46;0.30;;;0.30;;
14782;SDS011;7483;50.498;12.138;2023-06-04T05:58:15;0.20;;;0.20;;
14782;SDS011;7483;50.498;12.138;2023-06-04T06:00:42;0.20;;;0.20;;
14782;SDS011;7483;50.498;12.138;2023-06-04T06:03:10;0.17;;;0.17;;
14782;SDS011;7483;50.498;12.138;2023-06-04T06:05:43;0.30;;;0.30;;
14782;SDS011;7483;50.498;12.138;2023-06-04T06:08:11;0.20;;;0.20;;
14782;SDS011;7483;50.498;12.138;2023-06-04T06:10:38;0.20;;;0.20;;
14782;SDS011;7483;50.498;12.138;2023-06-04T06:13:06;0.20;;;0.20;;
14782;SDS011;7483;50.498;12.138;2023-06-04T06:15:35;0.10;;;0.10;;
14782;SDS011;7483;50.498;12.138;2023-06-04T06:18:03;0.20;;;0.20;;
14782;SDS011;7483;50.498;12.138;2023-06-04T06:20:31;0.20;;;0.20;;
14782;SDS011;7483;50.498;12.138;2023-06-04T06:23:05;0.10;;;0.10;;
14782;SDS011;7483;50.498;12.138;2023-06-04T06:25:35;0.20;;;0.20;;
14782;SDS011;7483;50.498;12.138;2023-06-04T06:28:09;0.20;;;0.20;;
14782;SDS011;7483;50.498;12.138;2023-06-04T06:30:38;0.20;;;0.20;;
14782;SDS011;7483;50.498;12.138;2023-06-04T06:33:06;0.20;;;0.20;;
14782;SDS011;7483;50.498;12.138;2023-06-04T06:35:34;0.20;;;0.20;;
14782;SDS011;7483;50.498;12.138;2023-06-04T06:38:02;0.10;;;0.10;;
14782;SDS011;7483;50.498;12.138;2023-06-04T06:40:29;0.10;;;0.10;;
14782;SDS011;7483;50.498;12.138;2023-06-04T06:42:57;0.20;;;0.20;;
14782;SDS011;7483;50.498;12.138;2023-06-04T06:45:25;0.00;;;0.00;;
14782;SDS011;7483;50.498;12.138;2023-06-04T06:47:53;0.10;;;0.10;;
14782;SDS011;7483;50.498;12.138;2023-06-04T06:50:21;0.20;;;0.20;;
14782;SDS011;7483;50.498;12.138;2023-06-04T06:52:49;0.10;;;0.10;;
14782;SDS011;7483;50.498;12.138;2023-06-04T06:55:16;0.22;;;0.22;;
14782;SDS011;7483;50.498;12.138;2023-06-04T06:57:44;0.20;;;0.20;;
14782;SDS011;7483;50.498;12.138;2023-06-04T07:00:12;0.20;;;0.20;;
14782;SDS011;7483;50.498;12.138;2023-06-04T07:02:40;0.10;;;0.10;;
14782;SDS011;7483;50.498;12.138;2023-06-04T07:05:10;0.20;;;0.20;;
14782;SDS011;7483;50.498;12.138;2023-06-04T07:07:37;0.20;;;0.20;;
14782;SDS011;7483;50.498;12.138;2023-06-04T07:10:05;0.20;;;0.20;;
14782;SDS011;7483;50.498;12.138;2023-06-04T07:12:33;0.10;;;0.10;;
14782;SDS011;7483;50.498;12.138;2023-06-04T07:15:01;0.10;;;0.10;;
14782;SDS011;7483;50.498;12.138;2023-06-04T07:17:29;0.10;;;0.10;;
14782;SDS011;7483;50.498;12.138;2023-06-04T07:19:56;0.13;;;0.13;;
14782;SDS011;7483;50.498;12.138;2023-06-04T07:22:25;0.10;;;0.10;;
14782;SDS011;7483;50.498;12.138;2023-06-04T07:24:53;0.10;;;0.10;;
14782;SDS011;7483;50.498;12.138;2023-06-04T07:27:20;0.20;;;0.20;;
14782;SDS011;7483;50.498;12.138;2023-06-04T07:29:48;0.20;;;0.20;;
14782;SDS011;7483;50.498;12.138;2023-06-04T07:32:16;0.20;;;0.20;;
14782;SDS011;7483;50.498;12.138;2023-06-04T07:34:44;0.13;;;0.13;;
14782;SDS011;7483;50.498;12.138;2023-06-04T07:37:11;0.17;;;0.17;;
14782;SDS011;7483;50.498;12.138;2023-06-04T07:39:41;0.20;;;0.20;;
14782;SDS011;7483;50.498;12.138;2023-06-04T07:42:09;0.17;;;0.17;;
14782;SDS011;7483;50.498;12.138;2023-06-04T07:44:36;0.10;;;0.10;;
14782;SDS011;7483;50.498;12.138;2023-06-04T07:47:04;0.20;;;0.20;;
14782;SDS011;7483;50.498;12.138;2023-06-04T07:49:32;0.10;;;0.10;;
14782;SDS011;7483;50.498;12.138;2023-06-04T07:52:00;0.10;;;0.10;;
14782;SDS011;7483;50.498;12.138;2023-06-04T07:54:27;0.10;;;0.10;;
14782;SDS011;7483;50.498;12.138;2023-06-04T07:56:56;0.10;;;0.10;;
14782;SDS011;7483;50.498;12.138;2023-06-04T07:59:24;0.30;;;0.15;;
14782;SDS011;7483;50.498;12.138;2023-06-04T08:01:52;0.20;;;0.20;;
14782;SDS011;7483;50.498;12.138;2023-06-04T08:04:19;0.13;;;0.13;;
14782;SDS011;7483;50.498;12.138;2023-06-04T08:06:47;0.10;;;0.10;;
14782;SDS011;7483;50.498;12.138;2023-06-04T08:09:16;0.10;;;0.10;;
14782;SDS011;7483;50.498;12.138;2023-06-04T08:11:43;0.10;;;0.10;;
14782;SDS011;7483;50.498;12.138;2023-06-04T08:14:13;0.10;;;0.10;;
14782;SDS011;7483;50.498;12.138;2023-06-04T08:16:40;0.10;;;0.10;;
14782;SDS011;7483;50.498;12.138;2023-06-04T08:19:08;0.20;;;0.20;;
14782;SDS011;7483;50.498;12.138;2023-06-04T08:21:36;0.10;;;0.10;;
14782;SDS011;7483;50.498;12.138;2023-06-04T08:24:03;0.13;;;0.10;;
14782;SDS011;7483;50.498;12.138;2023-06-04T08:26:31;0.10;;;0.10;;
14782;SDS011;7483;50.498;12.138;2023-06-04T08:29:01;0.10;;;0.10;;
14782;SDS011;7483;50.498;12.138;2023-06-04T08:31:31;0.10;;;0.10;;
14782;SDS011;7483;50.498;12.138;2023-06-04T08:33:58;0.10;;;0.10;;
14782;SDS011;7483;50.498;12.138;2023-06-04T08:36:28;0.17;;;0.17;;
14782;SDS011;7483;50.498;12.138;2023-06-04T08:38:58;0.20;;;0.20;;
14782;SDS011;7483;50.498;12.138;2023-06-04T08:41:28;0.10;;;0.10;;
14782;SDS011;7483;50.498;12.138;2023-06-04T08:43:56;0.10;;;0.10;;
14782;SDS011;7483;50.498;12.138;2023-06-04T08:46:27;0.03;;;0.03;;
14782;SDS011;7483;50.498;12.138;2023-06-04T08:48:57;0.20;;;0.10;;
14782;SDS011;7483;50.498;12.138;2023-06-04T08:53:55;0.00;;;0.00;;
14782;SDS011;7483;50.498;12.138;2023-06-04T08:56:23;0.10;;;0.10;;
14782;SDS011;7483;50.498;12.138;2023-06-04T08:58:52;0.03;;;0.03;;
14782;SDS011;7483;50.498;12.138;2023-06-04T09:01:20;0.20;;;0.10;;
14782;SDS011;7483;50.498;12.138;2023-06-04T09:03:48;0.10;;;0.10;;
14782;SDS011;7483;50.498;12.138;2023-06-04T09:06:17;0.10;;;0.10;;
14782;SDS011;7483;50.498;12.138;2023-06-04T09:08:44;0.10;;;0.10;;
14782;SDS011;7483;50.498;12.138;2023-06-04T09:11:23;0.10;;;0.10;;
14782;SDS011;7483;50.498;12.138;2023-06-04T09:13:51;0.10;;;0.10;;
14782;SDS011;7483;50.498;12.138;2023-06-04T09:16:20;0.10;;;0.10;;
14782;SDS011;7483;50.498;12.138;2023-06-04T09:18:47;0.05;;;0.05;;
14782;SDS011;7483;50.498;12.138;2023-06-04T09:21:16;0.03;;;0.03;;
14782;SDS011;7483;50.498;12.138;2023-06-04T09:23:46;0.00;;;0.00;;
14782;SDS011;7483;50.498;12.138;2023-06-04T09:26:14;0.10;;;0.10;;
14782;SDS011;7483;50.498;12.138;2023-06-04T09:28:42;0.00;;;0.00;;
14782;SDS011;7483;50.498;12.138;2023-06-04T09:31:13;0.10;;;0.10;;
14782;SDS011;7483;50.498;12.138;2023-06-04T09:33:41;0.10;;;0.10;;
14782;SDS011;7483;50.498;12.138;2023-06-04T09:36:10;0.08;;;0.08;;
14782;SDS011;7483;50.498;12.138;2023-06-04T09:38:39;0.10;;;0.10;;
14782;SDS011;7483;50.498;12.138;2023-06-04T09:41:12;0.00;;;0.00;;
14782;SDS011;7483;50.498;12.138;2023-06-04T09:43:40;0.10;;;0.10;;
14782;SDS011;7483;50.498;12.138;2023-06-04T09:46:08;0.00;;;0.00;;
14782;SDS011;7483;50.498;12.138;2023-06-04T09:48:37;0.10;;;0.10;;
14782;SDS011;7483;50.498;12.138;2023-06-04T09:51:08;0.05;;;0.05;;
14782;SDS011;7483;50.498;12.138;2023-06-04T09:53:36;0.08;;;0.08;;
14782;SDS011;7483;50.498;12.138;2023-06-04T09:56:05;0.00;;;0.00;;
14782;SDS011;7483;50.498;12.138;2023-06-04T09:58:34;0.03;;;0.03;;
14782;SDS011;7483;50.498;12.138;2023-06-04T10:01:03;0.00;;;0.00;;
14782;SDS011;7483;50.498;12.138;2023-06-04T10:03:32;0.00;;;0.00;;
14782;SDS011;7483;50.498;12.138;2023-06-04T10:06:02;0.08;;;0.08;;
14782;SDS011;7483;50.498;12.138;2023-06-04T10:08:31;0.10;;;0.05;;
14782;SDS011;7483;50.498;12.138;2023-06-04T10:10:59;0.10;;;0.10;;
14782;SDS011;7483;50.498;12.138;2023-06-04T10:13:29;0.10;;;0.10;;
14782;SDS011;7483;50.498;12.138;2023-06-04T10:15:58;0.10;;;0.10;;
14782;SDS011;7483;50.498;12.138;2023-06-04T10:18:27;0.10;;;0.10;;
14782;SDS011;7483;50.498;12.138;2023-06-04T10:20:56;0.03;;;0.03;;
14782;SDS011;7483;50.498;12.138;2023-06-04T10:23:23;0.10;;;0.10;;
14782;SDS011;7483;50.498;12.138;2023-06-04T10:25:51;0.10;;;0.10;;
14782;SDS011;7483;50.498;12.138;2023-06-04T10:28:20;0.00;;;0.00;;
14782;SDS011;7483;50.498;12.138;2023-06-04T10:30:50;0.10;;;0.10;;
14782;SDS011;7483;50.498;12.138;2023-06-04T10:33:18;0.10;;;0.10;;
14782;SDS011;7483;50.498;12.138;2023-06-04T10:35:52;0.15;;;0.15;;
14782;SDS011;7483;50.498;12.138;2023-06-04T10:38:21;0.08;;;0.08;;
14782;SDS011;7483;50.498;12.138;2023-06-04T10:40:48;0.08;;;0.08;;
14782;SDS011;7483;50.498;12.138;2023-06-04T10:43:16;0.00;;;0.00;;
14782;SDS011;7483;50.498;12.138;2023-06-04T10:45:44;0.00;;;0.00;;
14782;SDS011;7483;50.498;12.138;2023-06-04T10:48:13;0.10;;;0.10;;
14782;SDS011;7483;50.498;12.138;2023-06-04T10:50:47;0.00;;;0.00;;
14782;SDS011;7483;50.498;12.138;2023-06-04T10:53:16;0.10;;;0.10;;
14782;SDS011;7483;50.498;12.138;2023-06-04T10:55:44;0.10;;;0.10;;
14782;SDS011;7483;50.498;12.138;2023-06-04T10:58:13;0.00;;;0.00;;
14782;SDS011;7483;50.498;12.138;2023-06-04T11:00:42;0.00;;;0.00;;
14782;SDS011;7483;50.498;12.138;2023-06-04T11:03:13;0.00;;;0.00;;
14782;SDS011;7483;50.498;12.138;2023-06-04T11:05:41;0.10;;;0.10;;
14782;SDS011;7483;50.498;12.138;2023-06-04T11:08:10;0.10;;;0.10;;
14782;SDS011;7483;50.498;12.138;2023-06-04T11:10:40;0.10;;;0.10;;
14782;SDS011;7483;50.498;12.138;2023-06-04T11:13:08;0.00;;;0.00;;
14782;SDS011;7483;50.498;12.138;2023-06-04T11:15:39;0.00;;;0.00;;
14782;SDS011;7483;50.498;12.138;2023-06-04T11:20:37;0.05;;;0.05;;
14782;SDS011;7483;50.498;12.138;2023-06-04T11:23:05;0.20;;;0.20;;
14782;SDS011;7483;50.498;12.138;2023-06-04T11:25:32;0.10;;;0.10;;
14782;SDS011;7483;50.498;12.138;2023-06-04T11:28:00;0.10;;;0.10;;
14782;SDS011;7483;50.498;12.138;2023-06-04T11:30:28;0.00;;;0.00;;
14782;SDS011;7483;50.498;12.138;2023-06-04T11:32:59;0.00;;;0.00;;
14782;SDS011;7483;50.498;12.138;2023-06-04T11:35:28;0.00;;;0.00;;
14782;SDS011;7483;50.498;12.138;2023-06-04T11:37:57;0.00;;;0.00;;
14782;SDS011;7483;50.498;12.138;2023-06-04T11:40:25;0.10;;;0.05;;
14782;SDS011;7483;50.498;12.138;2023-06-04T11:42:53;0.10;;;0.10;;
14782;SDS011;7483;50.498;12.138;2023-06-04T11:45:22;0.00;;;0.00;;
14782;SDS011;7483;50.498;12.138;2023-06-04T11:47:51;0.00;;;0.00;;
14782;SDS011;7483;50.498;12.138;2023-06-04T11:50:20;0.00;;;0.00;;
14782;SDS011;7483;50.498;12.138;2023-06-04T11:52:48;0.00;;;0.00;;
14782;SDS011;7483;50.498;12.138;2023-06-04T11:55:18;0.10;;;0.10;;
14782;SDS011;7483;50.498;12.138;2023-06-04T11:57:47;0.00;;;0.00;;
14782;SDS011;7483;50.498;12.138;2023-06-04T12:00:15;0.00;;;0.00;;
14782;SDS011;7483;50.498;12.138;2023-06-04T12:02:48;0.10;;;0.10;;
14782;SDS011;7483;50.498;12.138;2023-06-04T12:05:17;0.15;;;0.00;;
14782;SDS011;7483;50.498;12.138;2023-06-04T12:07:46;0.03;;;0.03;;
14782;SDS011;7483;50.498;12.138;2023-06-04T12:10:18;0.10;;;0.10;;
14782;SDS011;7483;50.498;12.138;2023-06-04T12:12:46;0.10;;;0.10;;
14782;SDS011;7483;50.498;12.138;2023-06-04T12:15:18;0.00;;;0.00;;
14782;SDS011;7483;50.498;12.138;2023-06-04T12:17:49;0.08;;;0.00;;
14782;SDS011;7483;50.498;12.138;2023-06-04T12:20:18;0.10;;;0.03;;
14782;SDS011;7483;50.498;12.138;2023-06-04T12:22:46;0.10;;;0.10;;
14782;SDS011;7483;50.498;12.138;2023-06-04T12:25:24;0.05;;;0.05;;
14782;SDS011;7483;50.498;12.138;2023-06-04T12:27:53;0.00;;;0.00;;
14782;SDS011;7483;50.498;12.138;2023-06-04T12:30:20;0.00;;;0.00;;
14782;SDS011;7483;50.498;12.138;2023-06-04T12:32:48;0.00;;;0.00;;
14782;SDS011;7483;50.498;12.138;2023-06-04T12:35:17;0.17;;;0.00;;
14782;SDS011;7483;50.498;12.138;2023-06-04T12:37:44;0.08;;;0.00;;
14782;SDS011;7483;50.498;12.138;2023-06-04T12:40:12;0.08;;;0.08;;
14782;SDS011;7483;50.498;12.138;2023-06-04T12:42:41;0.10;;;0.10;;
14782;SDS011;7483;50.498;12.138;2023-06-04T12:45:09;0.00;;;0.00;;
14782;SDS011;7483;50.498;12.138;2023-06-04T12:47:38;0.00;;;0.00;;
14782;SDS011;7483;50.498;12.138;2023-06-04T12:50:05;0.10;;;0.03;;
14782;SDS011;7483;50.498;12.138;2023-06-04T12:52:33;0.43;;;0.00;;
14782;SDS011;7483;50.498;12.138;2023-06-04T12:55:01;0.00;;;0.00;;
14782;SDS011;7483;50.498;12.138;2023-06-04T12:57:29;0.00;;;0.00;;
14782;SDS011;7483;50.498;12.138;2023-06-04T12:59:58;0.10;;;0.10;;
14782;SDS011;7483;50.498;12.138;2023-06-04T13:02:26;0.00;;;0.00;;
14782;SDS011;7483;50.498;12.138;2023-06-04T13:04:54;0.00;;;0.00;;
14782;SDS011;7483;50.498;12.138;2023-06-04T13:07:22;0.10;;;0.10;;
14782;SDS011;7483;50.498;12.138;2023-06-04T13:09:53;0.00;;;0.00;;
14782;SDS011;7483;50.498;12.138;2023-06-04T13:12:21;0.10;;;0.10;;
14782;SDS011;7483;50.498;12.138;2023-06-04T13:14:48;0.03;;;0.03;;
14782;SDS011;7483;50.498;12.138;2023-06-04T13:17:17;0.03;;;0.03;;
14782;SDS011;7483;50.498;12.138;2023-06-04T13:19:48;0.00;;;0.00;;
14782;SDS011;7483;50.498;12.138;2023-06-04T13:22:16;0.00;;;0.00;;
14782;SDS011;7483;50.498;12.138;2023-06-04T13:24:43;0.00;;;0.00;;
14782;SDS011;7483;50.498;12.138;2023-06-04T13:27:11;0.00;;;0.00;;
14782;SDS011;7483;50.498;12.138;2023-06-04T13:29:39;0.00;;;0.00;;
14782;SDS011;7483;50.498;12.138;2023-06-04T13:32:09;0.00;;;0.00;;
14782;SDS011;7483;50.498;12.138;2023-06-04T13:34:39;0.10;;;0.10;;
14782;SDS011;7483;50.498;12.138;2023-06-04T13:37:06;0.00;;;0.00;;
14782;SDS011;7483;50.498;12.138;2023-06-04T13:39:37;0.00;;;0.00;;
14782;SDS011;7483;50.498;12.138;2023-06-04T13:42:05;0.10;;;0.10;;
14782;SDS011;7483;50.498;12.138;2023-06-04T13:44:33;0.10;;;0.10;;
14782;SDS011;7483;50.498;12.138;2023-06-04T13:47:01;0.03;;;0.03;;
14782;SDS011;7483;50.498;12.138;2023-06-04T13:49:31;0.00;;;0.00;;
14782;SDS011;7483;50.498;12.138;2023-06-04T13:52:00;0.00;;;0.00;;
14782;SDS011;7483;50.498;12.138;2023-06-04T13:54:29;0.10;;;0.10;;
14782;SDS011;7483;50.498;12.138;2023-06-04T13:56:57;0.00;;;0.00;;
14782;SDS011;7483;50.498;12.138;2023-06-04T13:59:28;0.00;;;0.00;;
14782;SDS011;7483;50.498;12.138;2023-06-04T14:01:57;0.00;;;0.00;;
14782;SDS011;7483;50.498;12.138;2023-06-04T14:04:24;0.00;;;0.00;;
14782;SDS011;7483;50.498;12.138;2023-06-04T14:06:52;0.00;;;0.00;;
14782;SDS011;7483;50.498;12.138;2023-06-04T14:09:21;0.00;;;0.00;;
14782;SDS011;7483;50.498;12.138;2023-06-04T14:11:48;0.00;;;0.00;;
14782;SDS011;7483;50.498;12.138;2023-06-04T14:14:17;0.00;;;0.00;;
14782;SDS011;7483;50.498;12.138;2023-06-04T14:16:45;0.00;;;0.00;;
14782;SDS011;7483;50.498;12.138;2023-06-04T14:19:13;0.20;;;0.10;;
14782;SDS011;7483;50.498;12.138;2023-06-04T14:21:41;0.03;;;0.03;;
14782;SDS011;7483;50.498;12.138;2023-06-04T14:24:08;0.10;;;0.10;;
14782;SDS011;7483;50.498;12.138;2023-06-04T14:26:38;0.00;;;0.00;;
14782;SDS011;7483;50.498;12.138;2023-06-04T14:29:06;0.00;;;0.00;;
14782;SDS011;7483;50.498;12.138;2023-06-04T14:31:34;0.00;;;0.00;;
14782;SDS011;7483;50.498;12.138;2023-06-04T14:34:01;0.10;;;0.10;;
14782;SDS011;7483;50.498;12.138;2023-06-04T14:36:29;0.00;;;0.00;;
14782;SDS011;7483;50.498;12.138;2023-06-04T14:38:57;0.00;;;0.00;;
14782;SDS011;7483;50.498;12.138;2023-06-04T14:41:24;0.00;;;0.00;;
14782;SDS011;7483;50.498;12.138;2023-06-04T14:43:54;0.00;;;0.00;;
14782;SDS011;7483;50.498;12.138;2023-06-04T14:46:22;0.00;;;0.00;;
14782;SDS011;7483;50.498;12.138;2023-06-04T14:48:50;0.00;;;0.00;;
14782;SDS011;7483;50.498;12.138;2023-06-04T14:51:17;0.08;;;0.08;;
14782;SDS011;7483;50.498;12.138;2023-06-04T14:53:45;0.00;;;0.00;;
14782;SDS011;7483;50.498;12.138;2023-06-04T14:56:13;0.00;;;0.00;;
14782;SDS011;7483;50.498;12.138;2023-06-04T14:58:40;0.10;;;0.10;;
14782;SDS011;7483;50.498;12.138;2023-06-04T15:01:09;0.00;;;0.00;;
14782;SDS011;7483;50.498;12.138;2023-06-04T15:03:38;0.03;;;0.03;;
14782;SDS011;7483;50.498;12.138;2023-06-04T15:06:06;0.00;;;0.00;;